sensor_id;sensor_type;location;lat;lon;timestamp;P1;durP1;ratioP1;P2;durP2;ratioP2
53867;SDS011;41577;47.470;19.080;2022-10-31T00:00:09;87.15;;;45.38;;
53867;SDS011;41577;47.470;19.080;2022-10-31T00:00:29;85.03;;;46.38;;
53867;SDS011;41577;47.470;19.080;2022-10-31T00:00:44;83.05;;;45.45;;
53867;SDS011;41577;47.470;19.080;2022-10-31T00:01:00;85.03;;;45.38;;
53867;SDS011;41577;47.470;19.080;2022-10-31T00:01:15;89.47;;;46.78;;
53867;SDS011;41577;47.470;19.080;2022-10-31T00:01:32;85.97;;;46.53;;
53867;SDS011;41577;47.470;19.080;2022-10-31T00:01:49;77.82;;;44.65;;
53867;SDS011;41577;47.470;19.080;2022-10-31T00:02:05;82.05;;;44.42;;
53867;SDS011;41577;47.470;19.080;2022-10-31T00:02:19;82.88;;;45.42;;
53867;SDS011;41577;47.470;19.080;2022-10-31T00:02:35;84.95;;;46.10;;
53867;SDS011;41577;47.470;19.080;2022-10-31T00:02:51;86.03;;;45.72;;
53867;SDS011;41577;47.470;19.080;2022-10-31T00:03:06;82.72;;;44.90;;
53867;SDS011;41577;47.470;19.080;2022-10-31T00:03:21;81.13;;;44.78;;
53867;SDS011;41577;47.470;19.080;2022-10-31T00:03:38;83.65;;;45.70;;
53867;SDS011;41577;47.470;19.080;2022-10-31T00:03:55;82.63;;;46.22;;
53867;SDS011;41577;47.470;19.080;2022-10-31T00:04:09;82.53;;;45.65;;
53867;SDS011;41577;47.470;19.080;2022-10-31T00:04:24;80.75;;;44.80;;
53867;SDS011;41577;47.470;19.080;2022-10-31T00:04:41;76.60;;;44.53;;
53867;SDS011;41577;47.470;19.080;2022-10-31T00:04:57;81.47;;;43.72;;
53867;SDS011;41577;47.470;19.080;2022-10-31T00:05:13;77.78;;;44.28;;
53867;SDS011;41577;47.470;19.080;2022-10-31T00:05:28;81.18;;;45.60;;
53867;SDS011;41577;47.470;19.080;2022-10-31T00:05:45;85.32;;;47.08;;
53867;SDS011;41577;47.470;19.080;2022-10-31T00:06:01;82.35;;;46.40;;
53867;SDS011;41577;47.470;19.080;2022-10-31T00:06:17;81.72;;;45.13;;
53867;SDS011;41577;47.470;19.080;2022-10-31T00:06:33;76.10;;;45.08;;
53867;SDS011;41577;47.470;19.080;2022-10-31T00:06:49;80.32;;;45.90;;
53867;SDS011;41577;47.470;19.080;2022-10-31T00:07:09;84.68;;;45.35;;
53867;SDS011;41577;47.470;19.080;2022-10-31T00:07:27;79.70;;;44.88;;
53867;SDS011;41577;47.470;19.080;2022-10-31T00:07:42;79.38;;;44.67;;
53867;SDS011;41577;47.470;19.080;2022-10-31T00:07:57;85.13;;;44.22;;
53867;SDS011;41577;47.470;19.080;2022-10-31T00:08:12;85.40;;;44.88;;
53867;SDS011;41577;47.470;19.080;2022-10-31T00:08:36;78.88;;;43.83;;
53867;SDS011;41577;47.470;19.080;2022-10-31T00:08:52;84.10;;;44.90;;
53867;SDS011;41577;47.470;19.080;2022-10-31T00:09:09;82.88;;;45.95;;
53867;SDS011;41577;47.470;19.080;2022-10-31T00:09:26;73.00;;;44.25;;
53867;SDS011;41577;47.470;19.080;2022-10-31T00:09:42;75.68;;;44.17;;
53867;SDS011;41577;47.470;19.080;2022-10-31T00:10:00;79.60;;;45.25;;
53867;SDS011;41577;47.470;19.080;2022-10-31T00:10:14;77.88;;;44.88;;
53867;SDS011;41577;47.470;19.080;2022-10-31T00:10:30;75.00;;;43.30;;
53867;SDS011;41577;47.470;19.080;2022-10-31T00:10:46;78.80;;;44.15;;
53867;SDS011;41577;47.470;19.080;2022-10-31T00:11:00;80.25;;;45.13;;
53867;SDS011;41577;47.470;19.080;2022-10-31T00:11:16;74.78;;;44.08;;
53867;SDS011;41577;47.470;19.080;2022-10-31T00:11:32;72.90;;;44.08;;
53867;SDS011;41577;47.470;19.080;2022-10-31T00:11:47;77.93;;;44.40;;
53867;SDS011;41577;47.470;19.080;2022-10-31T00:12:04;79.30;;;44.17;;
53867;SDS011;41577;47.470;19.080;2022-10-31T00:12:22;82.38;;;44.50;;
53867;SDS011;41577;47.470;19.080;2022-10-31T00:12:39;86.47;;;44.38;;
53867;SDS011;41577;47.470;19.080;2022-10-31T00:12:56;84.03;;;44.05;;
53867;SDS011;41577;47.470;19.080;2022-10-31T00:13:18;77.43;;;42.13;;
53867;SDS011;41577;47.470;19.080;2022-10-31T00:13:33;79.53;;;43.17;;
53867;SDS011;41577;47.470;19.080;2022-10-31T00:13:49;76.95;;;43.00;;
53867;SDS011;41577;47.470;19.080;2022-10-31T00:14:10;75.78;;;43.80;;
53867;SDS011;41577;47.470;19.080;2022-10-31T00:14:36;77.63;;;42.85;;
53867;SDS011;41577;47.470;19.080;2022-10-31T00:14:54;82.20;;;42.95;;
53867;SDS011;41577;47.470;19.080;2022-10-31T00:15:10;85.82;;;45.20;;
53867;SDS011;41577;47.470;19.080;2022-10-31T00:15:27;85.05;;;44.92;;
53867;SDS011;41577;47.470;19.080;2022-10-31T00:15:43;78.85;;;42.85;;
53867;SDS011;41577;47.470;19.080;2022-10-31T00:16:03;78.45;;;42.45;;
53867;SDS011;41577;47.470;19.080;2022-10-31T00:16:36;74.97;;;43.38;;
53867;SDS011;41577;47.470;19.080;2022-10-31T00:16:56;81.70;;;44.55;;
53867;SDS011;41577;47.470;19.080;2022-10-31T00:17:10;84.32;;;45.72;;
53867;SDS011;41577;47.470;19.080;2022-10-31T00:17:26;78.68;;;44.50;;
53867;SDS011;41577;47.470;19.080;2022-10-31T00:17:40;77.78;;;43.08;;
53867;SDS011;41577;47.470;19.080;2022-10-31T00:18:06;83.07;;;43.80;;
53867;SDS011;41577;47.470;19.080;2022-10-31T00:18:24;75.65;;;42.17;;
53867;SDS011;41577;47.470;19.080;2022-10-31T00:18:40;80.90;;;41.58;;
53867;SDS011;41577;47.470;19.080;2022-10-31T00:18:54;78.63;;;42.80;;
53867;SDS011;41577;47.470;19.080;2022-10-31T00:19:15;72.50;;;42.53;;
53867;SDS011;41577;47.470;19.080;2022-10-31T00:19:30;78.32;;;43.60;;
53867;SDS011;41577;47.470;19.080;2022-10-31T00:19:46;80.13;;;43.33;;
53867;SDS011;41577;47.470;19.080;2022-10-31T00:20:08;78.50;;;43.03;;
53867;SDS011;41577;47.470;19.080;2022-10-31T00:20:23;79.00;;;42.35;;
53867;SDS011;41577;47.470;19.080;2022-10-31T00:20:40;74.35;;;41.15;;
53867;SDS011;41577;47.470;19.080;2022-10-31T00:21:01;72.03;;;41.42;;
53867;SDS011;41577;47.470;19.080;2022-10-31T00:21:18;77.22;;;43.17;;
53867;SDS011;41577;47.470;19.080;2022-10-31T00:21:35;76.57;;;42.78;;
53867;SDS011;41577;47.470;19.080;2022-10-31T00:21:57;77.53;;;43.63;;
53867;SDS011;41577;47.470;19.080;2022-10-31T00:22:12;74.25;;;43.15;;
53867;SDS011;41577;47.470;19.080;2022-10-31T00:22:27;70.07;;;42.70;;
53867;SDS011;41577;47.470;19.080;2022-10-31T00:22:46;70.18;;;42.65;;
53867;SDS011;41577;47.470;19.080;2022-10-31T00:23:05;79.47;;;42.25;;
53867;SDS011;41577;47.470;19.080;2022-10-31T00:23:25;74.28;;;41.72;;
53867;SDS011;41577;47.470;19.080;2022-10-31T00:23:45;73.82;;;42.53;;
53867;SDS011;41577;47.470;19.080;2022-10-31T00:24:00;71.95;;;42.78;;
53867;SDS011;41577;47.470;19.080;2022-10-31T00:24:16;76.10;;;42.33;;
53867;SDS011;41577;47.470;19.080;2022-10-31T00:24:46;81.25;;;42.53;;
53867;SDS011;41577;47.470;19.080;2022-10-31T00:25:04;81.47;;;43.75;;
53867;SDS011;41577;47.470;19.080;2022-10-31T00:25:22;79.93;;;42.90;;
53867;SDS011;41577;47.470;19.080;2022-10-31T00:25:37;82.95;;;43.83;;
53867;SDS011;41577;47.470;19.080;2022-10-31T00:25:53;76.03;;;43.28;;
53867;SDS011;41577;47.470;19.080;2022-10-31T00:26:07;78.05;;;42.75;;
53867;SDS011;41577;47.470;19.080;2022-10-31T00:26:22;83.00;;;44.47;;
53867;SDS011;41577;47.470;19.080;2022-10-31T00:26:41;85.38;;;45.63;;
53867;SDS011;41577;47.470;19.080;2022-10-31T00:26:56;85.20;;;45.70;;
53867;SDS011;41577;47.470;19.080;2022-10-31T00:27:12;83.88;;;45.90;;
53867;SDS011;41577;47.470;19.080;2022-10-31T00:27:27;78.95;;;44.75;;
53867;SDS011;41577;47.470;19.080;2022-10-31T00:27:43;74.40;;;44.15;;
53867;SDS011;41577;47.470;19.080;2022-10-31T00:28:01;76.43;;;43.88;;
53867;SDS011;41577;47.470;19.080;2022-10-31T00:28:16;81.53;;;43.63;;
53867;SDS011;41577;47.470;19.080;2022-10-31T00:28:32;84.07;;;44.78;;
53867;SDS011;41577;47.470;19.080;2022-10-31T00:28:46;87.00;;;45.33;;
53867;SDS011;41577;47.470;19.080;2022-10-31T00:29:03;80.95;;;45.05;;
53867;SDS011;41577;47.470;19.080;2022-10-31T00:29:20;80.07;;;45.90;;
53867;SDS011;41577;47.470;19.080;2022-10-31T00:29:36;79.38;;;44.63;;
53867;SDS011;41577;47.470;19.080;2022-10-31T00:29:52;80.60;;;44.22;;
53867;SDS011;41577;47.470;19.080;2022-10-31T00:30:08;87.68;;;45.28;;
53867;SDS011;41577;47.470;19.080;2022-10-31T00:30:25;86.55;;;46.25;;
53867;SDS011;41577;47.470;19.080;2022-10-31T00:30:39;83.38;;;45.58;;
53867;SDS011;41577;47.470;19.080;2022-10-31T00:30:54;84.15;;;45.15;;
53867;SDS011;41577;47.470;19.080;2022-10-31T00:31:12;86.32;;;45.00;;
53867;SDS011;41577;47.470;19.080;2022-10-31T00:31:37;87.60;;;43.80;;
53867;SDS011;41577;47.470;19.080;2022-10-31T00:31:53;91.47;;;45.28;;
53867;SDS011;41577;47.470;19.080;2022-10-31T00:32:07;84.57;;;45.10;;
53867;SDS011;41577;47.470;19.080;2022-10-31T00:32:22;82.55;;;44.55;;
53867;SDS011;41577;47.470;19.080;2022-10-31T00:32:37;86.57;;;45.97;;
53867;SDS011;41577;47.470;19.080;2022-10-31T00:32:52;83.78;;;44.83;;
53867;SDS011;41577;47.470;19.080;2022-10-31T00:33:08;79.68;;;43.92;;
53867;SDS011;41577;47.470;19.080;2022-10-31T00:33:25;79.35;;;45.17;;
53867;SDS011;41577;47.470;19.080;2022-10-31T00:33:40;81.63;;;45.63;;
53867;SDS011;41577;47.470;19.080;2022-10-31T00:33:56;79.50;;;44.90;;
53867;SDS011;41577;47.470;19.080;2022-10-31T00:34:15;78.97;;;43.83;;
53867;SDS011;41577;47.470;19.080;2022-10-31T00:34:30;83.65;;;44.47;;
53867;SDS011;41577;47.470;19.080;2022-10-31T00:34:48;82.32;;;45.30;;
53867;SDS011;41577;47.470;19.080;2022-10-31T00:35:02;78.60;;;45.17;;
53867;SDS011;41577;47.470;19.080;2022-10-31T00:35:21;84.60;;;46.20;;
53867;SDS011;41577;47.470;19.080;2022-10-31T00:35:37;83.68;;;45.13;;
53867;SDS011;41577;47.470;19.080;2022-10-31T00:35:51;78.32;;;44.35;;
53867;SDS011;41577;47.470;19.080;2022-10-31T00:36:10;79.85;;;42.85;;
53867;SDS011;41577;47.470;19.080;2022-10-31T00:36:27;82.38;;;44.25;;
53867;SDS011;41577;47.470;19.080;2022-10-31T00:36:42;80.60;;;44.85;;
53867;SDS011;41577;47.470;19.080;2022-10-31T00:37:00;82.03;;;45.15;;
53867;SDS011;41577;47.470;19.080;2022-10-31T00:37:15;85.28;;;45.78;;
53867;SDS011;41577;47.470;19.080;2022-10-31T00:37:32;80.90;;;45.08;;
53867;SDS011;41577;47.470;19.080;2022-10-31T00:37:46;79.60;;;44.22;;
53867;SDS011;41577;47.470;19.080;2022-10-31T00:38:03;79.30;;;44.58;;
53867;SDS011;41577;47.470;19.080;2022-10-31T00:38:19;80.47;;;44.65;;
53867;SDS011;41577;47.470;19.080;2022-10-31T00:38:40;81.63;;;43.03;;
53867;SDS011;41577;47.470;19.080;2022-10-31T00:38:57;83.07;;;43.58;;
53867;SDS011;41577;47.470;19.080;2022-10-31T00:39:17;77.40;;;43.63;;
53867;SDS011;41577;47.470;19.080;2022-10-31T00:39:32;76.72;;;42.88;;
53867;SDS011;41577;47.470;19.080;2022-10-31T00:39:47;81.95;;;42.72;;
53867;SDS011;41577;47.470;19.080;2022-10-31T00:40:03;82.38;;;43.67;;
53867;SDS011;41577;47.470;19.080;2022-10-31T00:40:20;80.43;;;43.50;;
53867;SDS011;41577;47.470;19.080;2022-10-31T00:40:35;83.18;;;42.45;;
53867;SDS011;41577;47.470;19.080;2022-10-31T00:40:50;81.05;;;42.85;;
53867;SDS011;41577;47.470;19.080;2022-10-31T00:41:11;83.68;;;44.28;;
53867;SDS011;41577;47.470;19.080;2022-10-31T00:41:28;86.03;;;43.95;;
53867;SDS011;41577;47.470;19.080;2022-10-31T00:41:43;84.82;;;44.25;;
53867;SDS011;41577;47.470;19.080;2022-10-31T00:42:04;85.80;;;46.20;;
53867;SDS011;41577;47.470;19.080;2022-10-31T00:42:20;85.47;;;46.20;;
53867;SDS011;41577;47.470;19.080;2022-10-31T00:42:34;86.63;;;46.20;;
53867;SDS011;41577;47.470;19.080;2022-10-31T00:42:49;87.80;;;45.28;;
53867;SDS011;41577;47.470;19.080;2022-10-31T00:43:03;83.60;;;44.17;;
53867;SDS011;41577;47.470;19.080;2022-10-31T00:43:18;83.38;;;44.97;;
53867;SDS011;41577;47.470;19.080;2022-10-31T00:43:34;90.10;;;45.92;;
53867;SDS011;41577;47.470;19.080;2022-10-31T00:43:49;86.88;;;44.83;;
53867;SDS011;41577;47.470;19.080;2022-10-31T00:44:05;80.57;;;43.15;;
53867;SDS011;41577;47.470;19.080;2022-10-31T00:44:22;80.82;;;42.58;;
53867;SDS011;41577;47.470;19.080;2022-10-31T00:44:39;86.38;;;44.45;;
53867;SDS011;41577;47.470;19.080;2022-10-31T00:44:56;89.38;;;45.42;;
53867;SDS011;41577;47.470;19.080;2022-10-31T00:45:18;84.40;;;46.00;;
53867;SDS011;41577;47.470;19.080;2022-10-31T00:45:33;83.85;;;45.00;;
53867;SDS011;41577;47.470;19.080;2022-10-31T00:45:48;82.88;;;43.05;;
53867;SDS011;41577;47.470;19.080;2022-10-31T00:46:07;83.25;;;44.13;;
53867;SDS011;41577;47.470;19.080;2022-10-31T00:46:22;79.75;;;44.65;;
53867;SDS011;41577;47.470;19.080;2022-10-31T00:46:39;80.75;;;43.95;;
53867;SDS011;41577;47.470;19.080;2022-10-31T00:46:54;80.78;;;42.88;;
53867;SDS011;41577;47.470;19.080;2022-10-31T00:47:10;84.20;;;43.25;;
53867;SDS011;41577;47.470;19.080;2022-10-31T00:47:25;87.80;;;43.38;;
53867;SDS011;41577;47.470;19.080;2022-10-31T00:47:40;87.38;;;43.47;;
53867;SDS011;41577;47.470;19.080;2022-10-31T00:47:56;83.47;;;42.78;;
53867;SDS011;41577;47.470;19.080;2022-10-31T00:48:11;77.18;;;42.33;;
53867;SDS011;41577;47.470;19.080;2022-10-31T00:48:26;78.18;;;42.85;;
53867;SDS011;41577;47.470;19.080;2022-10-31T00:48:42;80.97;;;42.85;;
53867;SDS011;41577;47.470;19.080;2022-10-31T00:48:58;80.43;;;43.00;;
53867;SDS011;41577;47.470;19.080;2022-10-31T00:49:15;79.35;;;42.88;;
53867;SDS011;41577;47.470;19.080;2022-10-31T00:49:33;77.18;;;44.28;;
53867;SDS011;41577;47.470;19.080;2022-10-31T00:49:50;84.13;;;45.90;;
53867;SDS011;41577;47.470;19.080;2022-10-31T00:50:05;84.47;;;45.80;;
53867;SDS011;41577;47.470;19.080;2022-10-31T00:50:22;81.15;;;44.90;;
53867;SDS011;41577;47.470;19.080;2022-10-31T00:50:39;79.97;;;44.78;;
53867;SDS011;41577;47.470;19.080;2022-10-31T00:50:58;87.30;;;44.08;;
53867;SDS011;41577;47.470;19.080;2022-10-31T00:51:19;89.00;;;44.92;;
53867;SDS011;41577;47.470;19.080;2022-10-31T00:51:48;73.90;;;41.17;;
53867;SDS011;41577;47.470;19.080;2022-10-31T00:52:07;84.18;;;43.03;;
53867;SDS011;41577;47.470;19.080;2022-10-31T00:52:25;89.13;;;45.13;;
53867;SDS011;41577;47.470;19.080;2022-10-31T00:52:42;87.07;;;44.88;;
53867;SDS011;41577;47.470;19.080;2022-10-31T00:52:57;86.32;;;44.08;;
53867;SDS011;41577;47.470;19.080;2022-10-31T00:53:13;81.47;;;44.75;;
53867;SDS011;41577;47.470;19.080;2022-10-31T00:53:29;83.82;;;45.75;;
53867;SDS011;41577;47.470;19.080;2022-10-31T00:53:44;86.97;;;45.20;;
53867;SDS011;41577;47.470;19.080;2022-10-31T00:54:03;86.60;;;44.53;;
53867;SDS011;41577;47.470;19.080;2022-10-31T00:54:24;91.60;;;44.25;;
53867;SDS011;41577;47.470;19.080;2022-10-31T00:54:39;86.40;;;43.15;;
53867;SDS011;41577;47.470;19.080;2022-10-31T00:54:55;77.65;;;42.30;;
53867;SDS011;41577;47.470;19.080;2022-10-31T00:55:13;77.82;;;42.90;;
53867;SDS011;41577;47.470;19.080;2022-10-31T00:55:32;83.32;;;43.58;;
53867;SDS011;41577;47.470;19.080;2022-10-31T00:55:46;85.47;;;44.83;;
53867;SDS011;41577;47.470;19.080;2022-10-31T00:56:02;84.15;;;45.10;;
53867;SDS011;41577;47.470;19.080;2022-10-31T00:56:17;83.15;;;44.67;;
53867;SDS011;41577;47.470;19.080;2022-10-31T00:56:32;78.50;;;43.50;;
53867;SDS011;41577;47.470;19.080;2022-10-31T00:56:47;79.90;;;43.85;;
53867;SDS011;41577;47.470;19.080;2022-10-31T00:57:02;93.90;;;46.10;;
53867;SDS011;41577;47.470;19.080;2022-10-31T00:57:19;101.57;;;47.15;;
53867;SDS011;41577;47.470;19.080;2022-10-31T00:57:35;94.28;;;45.35;;
53867;SDS011;41577;47.470;19.080;2022-10-31T00:57:52;89.63;;;44.83;;
53867;SDS011;41577;47.470;19.080;2022-10-31T00:58:08;94.07;;;45.90;;
53867;SDS011;41577;47.470;19.080;2022-10-31T00:58:22;86.25;;;46.25;;
53867;SDS011;41577;47.470;19.080;2022-10-31T00:58:41;84.00;;;45.53;;
53867;SDS011;41577;47.470;19.080;2022-10-31T00:58:58;84.50;;;44.40;;
53867;SDS011;41577;47.470;19.080;2022-10-31T00:59:15;81.03;;;44.42;;
53867;SDS011;41577;47.470;19.080;2022-10-31T00:59:34;78.78;;;43.78;;
53867;SDS011;41577;47.470;19.080;2022-10-31T00:59:48;82.47;;;44.53;;
53867;SDS011;41577;47.470;19.080;2022-10-31T01:00:04;89.32;;;46.33;;
53867;SDS011;41577;47.470;19.080;2022-10-31T01:00:20;93.75;;;47.97;;
53867;SDS011;41577;47.470;19.080;2022-10-31T01:00:35;89.93;;;47.05;;
53867;SDS011;41577;47.470;19.080;2022-10-31T01:00:50;85.05;;;45.60;;
53867;SDS011;41577;47.470;19.080;2022-10-31T01:01:09;90.63;;;45.30;;
53867;SDS011;41577;47.470;19.080;2022-10-31T01:01:27;89.00;;;45.55;;
53867;SDS011;41577;47.470;19.080;2022-10-31T01:01:46;92.85;;;47.28;;
53867;SDS011;41577;47.470;19.080;2022-10-31T01:02:00;92.20;;;47.13;;
53867;SDS011;41577;47.470;19.080;2022-10-31T01:02:15;93.25;;;46.33;;
53867;SDS011;41577;47.470;19.080;2022-10-31T01:02:31;92.72;;;46.22;;
53867;SDS011;41577;47.470;19.080;2022-10-31T01:02:47;93.90;;;47.70;;
53867;SDS011;41577;47.470;19.080;2022-10-31T01:03:02;92.55;;;47.80;;
53867;SDS011;41577;47.470;19.080;2022-10-31T01:03:19;93.53;;;47.05;;
53867;SDS011;41577;47.470;19.080;2022-10-31T01:03:34;90.80;;;47.08;;
53867;SDS011;41577;47.470;19.080;2022-10-31T01:03:49;87.20;;;46.33;;
53867;SDS011;41577;47.470;19.080;2022-10-31T01:04:06;91.53;;;46.05;;
53867;SDS011;41577;47.470;19.080;2022-10-31T01:04:21;97.20;;;48.38;;
53867;SDS011;41577;47.470;19.080;2022-10-31T01:04:38;90.18;;;48.72;;
53867;SDS011;41577;47.470;19.080;2022-10-31T01:04:54;88.18;;;46.78;;
53867;SDS011;41577;47.470;19.080;2022-10-31T01:05:07;92.43;;;46.53;;
53867;SDS011;41577;47.470;19.080;2022-10-31T01:05:24;94.43;;;45.90;;
53867;SDS011;41577;47.470;19.080;2022-10-31T01:05:39;93.72;;;45.65;;
53867;SDS011;41577;47.470;19.080;2022-10-31T01:05:56;93.57;;;47.15;;
53867;SDS011;41577;47.470;19.080;2022-10-31T01:06:13;96.93;;;48.30;;
53867;SDS011;41577;47.470;19.080;2022-10-31T01:06:29;96.15;;;48.67;;
53867;SDS011;41577;47.470;19.080;2022-10-31T01:06:44;97.38;;;49.42;;
53867;SDS011;41577;47.470;19.080;2022-10-31T01:06:58;100.90;;;50.22;;
53867;SDS011;41577;47.470;19.080;2022-10-31T01:07:14;100.63;;;49.00;;
53867;SDS011;41577;47.470;19.080;2022-10-31T01:07:31;98.10;;;46.22;;
53867;SDS011;41577;47.470;19.080;2022-10-31T01:07:50;98.00;;;47.28;;
53867;SDS011;41577;47.470;19.080;2022-10-31T01:08:12;93.70;;;48.38;;
53867;SDS011;41577;47.470;19.080;2022-10-31T01:08:30;98.18;;;49.67;;
53867;SDS011;41577;47.470;19.080;2022-10-31T01:08:45;94.10;;;48.20;;
53867;SDS011;41577;47.470;19.080;2022-10-31T01:09:01;94.00;;;47.97;;
53867;SDS011;41577;47.470;19.080;2022-10-31T01:09:15;99.03;;;48.83;;
53867;SDS011;41577;47.470;19.080;2022-10-31T01:09:31;101.07;;;49.72;;
53867;SDS011;41577;47.470;19.080;2022-10-31T01:09:46;104.20;;;49.75;;
53867;SDS011;41577;47.470;19.080;2022-10-31T01:10:01;99.63;;;47.95;;
53867;SDS011;41577;47.470;19.080;2022-10-31T01:10:17;91.60;;;47.83;;
53867;SDS011;41577;47.470;19.080;2022-10-31T01:10:32;97.25;;;48.17;;
53867;SDS011;41577;47.470;19.080;2022-10-31T01:10:57;98.32;;;47.55;;
53867;SDS011;41577;47.470;19.080;2022-10-31T01:11:14;101.00;;;47.97;;
53867;SDS011;41577;47.470;19.080;2022-10-31T01:11:30;99.40;;;49.17;;
53867;SDS011;41577;47.470;19.080;2022-10-31T01:11:44;93.75;;;49.40;;
53867;SDS011;41577;47.470;19.080;2022-10-31T01:12:01;93.68;;;46.90;;
53867;SDS011;41577;47.470;19.080;2022-10-31T01:12:16;94.38;;;46.80;;
53867;SDS011;41577;47.470;19.080;2022-10-31T01:12:35;92.88;;;47.08;;
53867;SDS011;41577;47.470;19.080;2022-10-31T01:12:50;90.05;;;46.72;;
53867;SDS011;41577;47.470;19.080;2022-10-31T01:13:12;89.80;;;45.95;;
53867;SDS011;41577;47.470;19.080;2022-10-31T01:13:27;95.78;;;47.28;;
53867;SDS011;41577;47.470;19.080;2022-10-31T01:13:43;95.90;;;47.90;;
53867;SDS011;41577;47.470;19.080;2022-10-31T01:13:57;93.82;;;46.97;;
53867;SDS011;41577;47.470;19.080;2022-10-31T01:14:21;90.85;;;46.45;;
53867;SDS011;41577;47.470;19.080;2022-10-31T01:14:36;89.20;;;45.72;;
53867;SDS011;41577;47.470;19.080;2022-10-31T01:14:51;89.63;;;45.25;;
53867;SDS011;41577;47.470;19.080;2022-10-31T01:15:07;86.07;;;45.00;;
53867;SDS011;41577;47.470;19.080;2022-10-31T01:15:22;86.63;;;45.35;;
53867;SDS011;41577;47.470;19.080;2022-10-31T01:15:37;91.32;;;46.17;;
53867;SDS011;41577;47.470;19.080;2022-10-31T01:15:54;92.57;;;45.60;;
53867;SDS011;41577;47.470;19.080;2022-10-31T01:16:10;88.28;;;44.63;;
53867;SDS011;41577;47.470;19.080;2022-10-31T01:16:27;80.25;;;43.28;;
53867;SDS011;41577;47.470;19.080;2022-10-31T01:16:44;80.85;;;43.88;;
53867;SDS011;41577;47.470;19.080;2022-10-31T01:17:17;90.25;;;45.78;;
53867;SDS011;41577;47.470;19.080;2022-10-31T01:17:33;84.43;;;44.72;;
53867;SDS011;41577;47.470;19.080;2022-10-31T01:17:49;81.93;;;43.22;;
53867;SDS011;41577;47.470;19.080;2022-10-31T01:18:04;83.03;;;43.03;;
53867;SDS011;41577;47.470;19.080;2022-10-31T01:18:19;85.25;;;43.28;;
53867;SDS011;41577;47.470;19.080;2022-10-31T01:18:36;86.78;;;43.78;;
53867;SDS011;41577;47.470;19.080;2022-10-31T01:18:51;85.25;;;45.08;;
53867;SDS011;41577;47.470;19.080;2022-10-31T01:19:06;88.75;;;44.92;;
53867;SDS011;41577;47.470;19.080;2022-10-31T01:19:21;89.70;;;43.50;;
53867;SDS011;41577;47.470;19.080;2022-10-31T01:19:36;86.97;;;43.13;;
53867;SDS011;41577;47.470;19.080;2022-10-31T01:19:51;87.50;;;43.30;;
53867;SDS011;41577;47.470;19.080;2022-10-31T01:20:07;86.65;;;45.00;;
53867;SDS011;41577;47.470;19.080;2022-10-31T01:20:24;90.35;;;45.50;;
53867;SDS011;41577;47.470;19.080;2022-10-31T01:20:42;92.50;;;45.00;;
53867;SDS011;41577;47.470;19.080;2022-10-31T01:20:59;94.30;;;44.85;;
53867;SDS011;41577;47.470;19.080;2022-10-31T01:21:17;90.13;;;44.55;;
53867;SDS011;41577;47.470;19.080;2022-10-31T01:21:35;93.05;;;44.90;;
53867;SDS011;41577;47.470;19.080;2022-10-31T01:21:50;94.05;;;44.22;;
53867;SDS011;41577;47.470;19.080;2022-10-31T01:22:06;90.93;;;45.08;;
53867;SDS011;41577;47.470;19.080;2022-10-31T01:22:22;94.57;;;46.13;;
53867;SDS011;41577;47.470;19.080;2022-10-31T01:22:37;93.07;;;45.45;;
53867;SDS011;41577;47.470;19.080;2022-10-31T01:22:52;93.50;;;45.00;;
53867;SDS011;41577;47.470;19.080;2022-10-31T01:23:12;98.57;;;46.10;;
53867;SDS011;41577;47.470;19.080;2022-10-31T01:23:29;95.82;;;46.00;;
53867;SDS011;41577;47.470;19.080;2022-10-31T01:23:44;92.30;;;45.35;;
53867;SDS011;41577;47.470;19.080;2022-10-31T01:24:00;91.30;;;44.65;;
53867;SDS011;41577;47.470;19.080;2022-10-31T01:24:15;87.53;;;42.90;;
53867;SDS011;41577;47.470;19.080;2022-10-31T01:24:30;89.22;;;44.10;;
53867;SDS011;41577;47.470;19.080;2022-10-31T01:24:56;84.78;;;43.95;;
53867;SDS011;41577;47.470;19.080;2022-10-31T01:25:10;86.43;;;43.50;;
53867;SDS011;41577;47.470;19.080;2022-10-31T01:25:25;90.55;;;44.30;;
53867;SDS011;41577;47.470;19.080;2022-10-31T01:25:41;86.75;;;44.22;;
53867;SDS011;41577;47.470;19.080;2022-10-31T01:25:59;83.57;;;43.40;;
53867;SDS011;41577;47.470;19.080;2022-10-31T01:26:17;88.90;;;44.08;;
53867;SDS011;41577;47.470;19.080;2022-10-31T01:26:34;86.30;;;45.05;;
53867;SDS011;41577;47.470;19.080;2022-10-31T01:26:48;84.70;;;45.25;;
53867;SDS011;41577;47.470;19.080;2022-10-31T01:27:02;83.70;;;44.70;;
53867;SDS011;41577;47.470;19.080;2022-10-31T01:27:20;86.70;;;44.33;;
53867;SDS011;41577;47.470;19.080;2022-10-31T01:27:36;89.40;;;43.97;;
53867;SDS011;41577;47.470;19.080;2022-10-31T01:27:54;98.15;;;44.58;;
53867;SDS011;41577;47.470;19.080;2022-10-31T01:28:10;91.22;;;44.88;;
53867;SDS011;41577;47.470;19.080;2022-10-31T01:28:26;83.53;;;44.08;;
53867;SDS011;41577;47.470;19.080;2022-10-31T01:28:43;82.70;;;43.88;;
53867;SDS011;41577;47.470;19.080;2022-10-31T01:28:59;87.63;;;44.47;;
53867;SDS011;41577;47.470;19.080;2022-10-31T01:29:15;91.53;;;44.53;;
53867;SDS011;41577;47.470;19.080;2022-10-31T01:29:29;92.57;;;44.72;;
53867;SDS011;41577;47.470;19.080;2022-10-31T01:29:45;88.30;;;44.80;;
53867;SDS011;41577;47.470;19.080;2022-10-31T01:30:00;87.10;;;43.80;;
53867;SDS011;41577;47.470;19.080;2022-10-31T01:30:16;88.80;;;43.72;;
53867;SDS011;41577;47.470;19.080;2022-10-31T01:30:31;86.85;;;44.97;;
53867;SDS011;41577;47.470;19.080;2022-10-31T01:30:46;85.32;;;44.72;;
53867;SDS011;41577;47.470;19.080;2022-10-31T01:31:02;88.40;;;44.30;;
53867;SDS011;41577;47.470;19.080;2022-10-31T01:31:21;89.78;;;42.67;;
53867;SDS011;41577;47.470;19.080;2022-10-31T01:31:39;90.40;;;43.67;;
53867;SDS011;41577;47.470;19.080;2022-10-31T01:31:54;95.97;;;45.17;;
53867;SDS011;41577;47.470;19.080;2022-10-31T01:32:10;93.10;;;45.05;;
53867;SDS011;41577;47.470;19.080;2022-10-31T01:32:26;88.10;;;44.10;;
53867;SDS011;41577;47.470;19.080;2022-10-31T01:32:42;93.30;;;43.97;;
53867;SDS011;41577;47.470;19.080;2022-10-31T01:32:58;89.13;;;44.70;;
53867;SDS011;41577;47.470;19.080;2022-10-31T01:33:15;84.95;;;42.67;;
53867;SDS011;41577;47.470;19.080;2022-10-31T01:33:31;87.63;;;42.30;;
53867;SDS011;41577;47.470;19.080;2022-10-31T01:33:47;88.32;;;43.85;;
53867;SDS011;41577;47.470;19.080;2022-10-31T01:34:03;86.20;;;43.38;;
53867;SDS011;41577;47.470;19.080;2022-10-31T01:34:19;87.07;;;42.00;;
53867;SDS011;41577;47.470;19.080;2022-10-31T01:34:34;89.25;;;42.80;;
53867;SDS011;41577;47.470;19.080;2022-10-31T01:34:48;92.32;;;43.83;;
53867;SDS011;41577;47.470;19.080;2022-10-31T01:35:03;91.13;;;43.78;;
53867;SDS011;41577;47.470;19.080;2022-10-31T01:35:19;83.13;;;42.92;;
53867;SDS011;41577;47.470;19.080;2022-10-31T01:35:34;79.78;;;42.05;;
53867;SDS011;41577;47.470;19.080;2022-10-31T01:35:52;82.45;;;41.97;;
53867;SDS011;41577;47.470;19.080;2022-10-31T01:36:13;86.95;;;43.47;;